createdAt,value
2019-03-02T00:01:45.807Z,99.90
2019-03-02T00:04:12.612Z,99.90
2019-03-02T00:06:40.528Z,99.90
2019-03-02T00:09:08.518Z,99.90
2019-03-02T00:11:36.307Z,99.80
2019-03-02T00:14:04.337Z,99.90
2019-03-02T00:16:32.394Z,99.90
2019-03-02T00:19:02.906Z,99.90
2019-03-02T00:21:31.410Z,99.90
2019-03-02T00:23:59.983Z,99.90
2019-03-02T00:26:29.674Z,99.50
2019-03-02T00:28:58.988Z,99.20
2019-03-02T00:31:29.799Z,99.10
2019-03-02T00:34:00.083Z,98.50
2019-03-02T00:36:28.258Z,98.70
2019-03-02T00:38:58.295Z,98.90
2019-03-02T00:41:26.674Z,98.70
2019-03-02T00:43:54.744Z,98.70
2019-03-02T00:46:23.869Z,98.30
2019-03-02T00:48:52.117Z,98.60
2019-03-02T00:51:20.020Z,98.60
2019-03-02T00:53:48.171Z,98.30
2019-03-02T00:56:16.471Z,98.00
2019-03-02T00:58:46.139Z,97.80
2019-03-02T01:01:15.520Z,97.60
2019-03-02T01:03:43.502Z,97.60
2019-03-02T01:06:12.728Z,97.30
2019-03-02T01:08:41.337Z,97.90
2019-03-02T01:11:09.780Z,98.10
2019-03-02T01:13:37.569Z,97.90
2019-03-02T01:16:07.507Z,97.60
2019-03-02T01:18:38.714Z,97.50
2019-03-02T01:21:06.404Z,98.10
2019-03-02T01:23:34.443Z,97.90
2019-03-02T01:26:02.286Z,97.50
2019-03-02T01:28:30.296Z,97.60
2019-03-02T01:30:58.260Z,97.90
2019-03-02T01:33:28.556Z,97.70
2019-03-02T01:35:56.908Z,97.90
2019-03-02T01:38:25.098Z,97.90
2019-03-02T01:40:53.105Z,97.90
2019-03-02T01:43:22.989Z,97.80
2019-03-02T01:45:50.832Z,97.30
2019-03-02T01:48:18.757Z,97.40
2019-03-02T01:50:47.777Z,97.40
2019-03-02T01:53:16.483Z,97.10
2019-03-02T01:55:44.349Z,97.50
2019-03-02T01:58:12.601Z,97.70
2019-03-02T02:00:40.629Z,97.40
2019-03-02T02:03:12.030Z,97.50
2019-03-02T02:05:38.647Z,97.70
2019-03-02T02:08:06.759Z,97.60
2019-03-02T02:10:34.932Z,97.60
2019-03-02T02:13:06.236Z,97.50
2019-03-02T02:15:33.297Z,98.00
2019-03-02T02:18:01.360Z,97.40
2019-03-02T02:20:30.853Z,97.30
2019-03-02T02:22:59.248Z,98.00
2019-03-02T02:25:27.292Z,98.30
2019-03-02T02:27:57.821Z,97.60
2019-03-02T02:30:27.034Z,97.90
2019-03-02T02:33:02.786Z,98.00
2019-03-02T02:35:25.676Z,98.00
2019-03-02T02:37:55.189Z,97.70
2019-03-02T02:40:23.071Z,97.80
2019-03-02T02:42:50.867Z,98.20
2019-03-02T02:45:19.166Z,97.90
2019-03-02T02:47:52.372Z,97.80
2019-03-02T02:50:16.783Z,98.10
2019-03-02T02:52:44.883Z,97.90
2019-03-02T02:55:14.576Z,97.30
2019-03-02T02:57:42.359Z,97.60
2019-03-02T03:00:21.752Z,97.40
2019-03-02T03:02:49.776Z,97.40
2019-03-02T03:05:17.857Z,97.60
2019-03-02T03:07:51.984Z,97.70
2019-03-02T03:10:44.136Z,97.40
2019-03-02T03:13:12.059Z,97.50
2019-03-02T03:15:47.717Z,97.50
2019-03-02T03:18:15.714Z,97.50
2019-03-02T03:20:47.805Z,96.80
2019-03-02T03:23:13.423Z,98.00
2019-03-02T03:25:41.439Z,98.30
2019-03-02T03:28:09.421Z,98.60
2019-03-02T03:30:39.747Z,99.10
2019-03-02T03:33:06.932Z,98.90
2019-03-02T03:35:34.986Z,98.70
2019-03-02T03:38:02.773Z,98.30
2019-03-02T03:40:30.558Z,99.20
2019-03-02T03:43:03.102Z,99.50
2019-03-02T03:45:28.871Z,99.30
2019-03-02T03:47:56.850Z,99.40
2019-03-02T03:50:24.860Z,99.20
2019-03-02T03:52:52.766Z,99.20
2019-03-02T03:55:25.099Z,99.20
2019-03-02T03:57:55.322Z,99.00
2019-03-02T04:00:20.188Z,98.80
2019-03-02T04:02:47.964Z,99.30
2019-03-02T04:05:15.879Z,99.60
2019-03-02T04:07:48.520Z,99.90
2019-03-02T04:10:14.563Z,99.90
2019-03-02T04:12:42.428Z,99.90
2019-03-02T04:15:10.431Z,99.30
2019-03-02T04:17:39.420Z,99.70
2019-03-02T04:20:25.191Z,99.90
2019-03-02T04:22:54.029Z,99.70
2019-03-02T04:25:22.003Z,99.30
2019-03-02T04:27:54.272Z,99.40
2019-03-02T04:30:21.218Z,99.80
2019-03-02T04:32:49.160Z,99.80
2019-03-02T04:35:16.928Z,99.90
2019-03-02T04:37:44.697Z,99.90
2019-03-02T04:40:12.582Z,99.90
2019-03-02T04:42:40.341Z,99.90
2019-03-02T04:45:08.389Z,99.90
2019-03-02T04:47:36.298Z,99.80
2019-03-02T04:50:04.843Z,99.60
2019-03-02T04:52:32.702Z,99.60
2019-03-02T04:55:00.633Z,99.30
2019-03-02T04:57:29.311Z,99.30
2019-03-02T04:59:57.674Z,99.40
2019-03-02T05:02:25.780Z,99.20
2019-03-02T05:04:53.549Z,99.30
2019-03-02T05:07:21.514Z,99.40
2019-03-02T05:09:51.991Z,99.40
2019-03-02T05:12:20.263Z,99.50
2019-03-02T05:14:48.406Z,99.40
2019-03-02T05:17:16.388Z,99.50
2019-03-02T05:19:44.184Z,99.30
2019-03-02T05:22:12.119Z,99.10
2019-03-02T05:24:40.584Z,99.40
2019-03-02T05:27:09.544Z,99.40
2019-03-02T05:29:37.477Z,99.80
2019-03-02T05:32:05.267Z,99.90
2019-03-02T05:34:36.532Z,99.70
2019-03-02T05:37:03.897Z,99.50
2019-03-02T05:39:32.023Z,99.90
2019-03-02T05:42:01.747Z,99.90
2019-03-02T05:44:29.534Z,99.90
2019-03-02T05:46:57.775Z,99.90
2019-03-02T05:49:27.207Z,99.90
2019-03-02T05:51:55.181Z,99.90
2019-03-02T05:54:23.251Z,99.90
2019-03-02T05:56:51.036Z,99.90
2019-03-02T05:59:18.815Z,99.90
2019-03-02T06:01:46.863Z,99.70
2019-03-02T06:04:14.935Z,99.70
2019-03-02T06:06:42.707Z,99.70
2019-03-02T06:09:13.896Z,99.60
2019-03-02T06:11:41.735Z,99.50
2019-03-02T06:14:09.498Z,99.80
2019-03-02T06:16:37.260Z,99.90
2019-03-02T06:19:05.238Z,99.80
2019-03-02T06:21:33.221Z,99.90
2019-03-02T06:24:01.617Z,99.80
2019-03-02T06:26:31.715Z,99.90
2019-03-02T06:29:00.552Z,99.90
2019-03-02T06:31:28.621Z,99.90
2019-03-02T06:33:56.378Z,99.90
2019-03-02T06:36:24.156Z,99.90
2019-03-02T06:38:52.102Z,99.90
2019-03-02T06:41:19.873Z,99.90
2019-03-02T06:43:49.467Z,99.90
2019-03-02T06:46:19.923Z,99.90
2019-03-02T06:48:48.451Z,99.90
2019-03-02T06:51:16.460Z,99.90
2019-03-02T06:53:44.262Z,99.90
2019-03-02T06:56:12.215Z,99.90
2019-03-02T06:58:40.101Z,99.90
2019-03-02T07:01:07.875Z,99.90
2019-03-02T07:03:35.827Z,99.90
2019-03-02T07:06:03.626Z,99.80
2019-03-02T07:08:32.713Z,99.60
2019-03-02T07:11:01.204Z,99.40
2019-03-02T07:13:28.984Z,99.80
2019-03-02T07:15:58.765Z,99.70
2019-03-02T07:18:52.729Z,99.60
2019-03-02T07:21:20.697Z,99.10
2019-03-02T07:23:48.479Z,99.10
2019-03-02T07:26:19.723Z,99.20
2019-03-02T07:28:46.254Z,99.60
2019-03-02T07:31:14.043Z,99.00
2019-03-02T07:33:42.011Z,98.70
2019-03-02T07:36:09.823Z,98.40
2019-03-02T07:38:37.631Z,98.80
2019-03-02T07:41:07.597Z,98.40
2019-03-02T07:43:35.215Z,99.10
2019-03-02T07:46:02.999Z,98.90
2019-03-02T07:48:33.066Z,98.60
2019-03-02T07:51:04.702Z,98.30
2019-03-02T07:53:30.732Z,98.00
2019-03-02T07:56:00.519Z,96.80
2019-03-02T07:58:28.305Z,98.00
2019-03-02T08:00:56.104Z,97.60
2019-03-02T08:03:24.031Z,97.40
2019-03-02T08:05:51.967Z,96.50
2019-03-02T08:08:20.028Z,95.90
2019-03-02T08:10:47.947Z,95.80
2019-03-02T08:13:15.793Z,95.30
2019-03-02T08:15:43.793Z,94.50
2019-03-02T08:18:11.879Z,93.30
2019-03-02T08:20:39.699Z,94.20
2019-03-02T08:23:07.930Z,94.30
2019-03-02T08:25:35.893Z,92.90
2019-03-02T08:28:06.769Z,93.90
2019-03-02T08:30:34.209Z,93.40
2019-03-02T08:33:02.178Z,92.60
2019-03-02T08:35:30.140Z,91.60
2019-03-02T08:37:57.930Z,91.10
2019-03-02T08:40:25.718Z,90.20
2019-03-02T08:42:53.660Z,90.10
2019-03-02T08:45:21.407Z,88.20
2019-03-02T08:47:49.226Z,88.10
2019-03-02T08:50:17.754Z,89.20
2019-03-02T08:52:46.824Z,88.40
2019-03-02T08:55:15.111Z,88.50
2019-03-02T08:57:43.136Z,86.10
2019-03-02T09:00:16.084Z,90.10
2019-03-02T09:02:43.976Z,89.70
2019-03-02T09:05:12.120Z,90.30
2019-03-02T09:07:41.735Z,90.10
2019-03-02T09:10:13.597Z,90.10
2019-03-02T09:12:40.587Z,89.50
2019-03-02T09:15:13.334Z,90.20
2019-03-02T09:17:41.357Z,90.40
2019-03-02T09:20:10.515Z,90.10
2019-03-02T09:22:40.438Z,88.70
2019-03-02T09:25:11.073Z,89.00
2019-03-02T09:27:38.892Z,87.90
2019-03-02T09:30:10.306Z,85.90
2019-03-02T09:32:38.246Z,85.40
2019-03-02T09:35:07.242Z,86.20
2019-03-02T09:37:35.021Z,88.30
2019-03-02T09:40:03.098Z,86.40
2019-03-02T09:42:37.527Z,86.30
2019-03-02T09:45:00.680Z,84.30
2019-03-02T09:47:28.491Z,84.50
2019-03-02T09:49:56.467Z,83.30
2019-03-02T09:52:24.441Z,79.50
2019-03-02T09:54:53.644Z,82.30
2019-03-02T09:57:21.616Z,82.30
2019-03-02T09:59:49.745Z,78.90
2019-03-02T10:02:17.538Z,77.30
2019-03-02T10:04:45.537Z,77.30
2019-03-02T10:07:13.441Z,78.20
2019-03-02T10:09:41.382Z,77.00
2019-03-02T10:12:10.058Z,76.00
2019-03-02T10:14:38.852Z,70.70
2019-03-02T10:17:06.769Z,73.90
2019-03-02T10:19:34.758Z,72.00
2019-03-02T10:22:02.665Z,74.20
2019-03-02T10:24:30.668Z,69.50
2019-03-02T10:26:58.633Z,73.80
2019-03-02T10:29:26.444Z,73.20
2019-03-02T10:31:54.396Z,72.40
2019-03-02T10:34:22.457Z,71.80
2019-03-02T10:36:50.245Z,71.00
2019-03-02T10:39:18.037Z,73.20
2019-03-02T10:41:45.972Z,69.30
2019-03-02T10:44:13.737Z,72.00
2019-03-02T10:46:41.633Z,70.30
2019-03-02T10:49:10.201Z,70.00
2019-03-02T10:51:39.286Z,70.80
2019-03-02T10:54:07.161Z,74.60
2019-03-02T10:56:36.499Z,73.80
2019-03-02T10:59:04.443Z,69.50
2019-03-02T11:01:32.400Z,71.00
2019-03-02T11:04:08.347Z,68.90
2019-03-02T11:06:51.793Z,69.40
2019-03-02T11:09:32.929Z,69.00
2019-03-02T11:12:27.488Z,66.20
2019-03-02T11:15:21.936Z,65.40
2019-03-02T11:18:02.074Z,64.70
2019-03-02T11:20:42.163Z,61.20
2019-03-02T11:23:19.656Z,61.50
2019-03-02T11:25:55.914Z,59.20
2019-03-02T11:28:32.765Z,61.30
2019-03-02T11:31:35.540Z,60.80
2019-03-02T11:34:41.259Z,61.30
2019-03-02T11:37:34.460Z,63.20
2019-03-02T11:40:15.886Z,62.50
2019-03-02T11:43:05.943Z,64.20
2019-03-02T11:45:45.766Z,63.00
2019-03-02T11:48:31.980Z,60.40
2019-03-02T11:51:07.231Z,60.30
2019-03-02T11:54:06.513Z,59.30
2019-03-02T11:56:52.608Z,59.20
2019-03-02T11:59:42.112Z,60.00
2019-03-02T12:02:27.540Z,63.00
2019-03-02T12:05:14.251Z,63.30
2019-03-02T12:08:01.780Z,64.90
2019-03-02T12:10:55.031Z,63.50
2019-03-02T12:13:34.976Z,63.40
2019-03-02T12:16:26.495Z,67.10
2019-03-02T12:19:13.880Z,66.70
2019-03-02T12:21:58.831Z,68.40
2019-03-02T12:24:54.700Z,69.90
2019-03-02T12:27:47.669Z,70.60
2019-03-02T12:30:48.832Z,69.50
2019-03-02T12:33:26.644Z,68.90
2019-03-02T12:36:07.497Z,70.60
2019-03-02T12:38:53.691Z,73.30
2019-03-02T12:41:43.862Z,72.90
2019-03-02T12:44:46.421Z,73.00
2019-03-02T12:47:36.708Z,72.90
2019-03-02T12:50:25.462Z,75.50
2019-03-02T12:52:59.062Z,76.60
2019-03-02T12:55:45.453Z,76.90
2019-03-02T12:58:26.678Z,78.70
2019-03-02T13:01:05.958Z,81.30
2019-03-02T13:03:53.466Z,81.00
2019-03-02T13:06:40.230Z,82.30
2019-03-02T13:09:23.398Z,84.20
2019-03-02T13:12:14.019Z,83.30
2019-03-02T13:15:10.927Z,83.40
2019-03-02T13:18:00.925Z,82.20
2019-03-02T13:20:54.365Z,81.00
2019-03-02T13:23:52.846Z,81.80
2019-03-02T13:26:31.123Z,84.30
2019-03-02T13:29:17.211Z,89.30
2019-03-02T13:32:04.603Z,90.20
2019-03-02T13:34:54.914Z,90.70
2019-03-02T13:37:42.440Z,91.60
2019-03-02T13:40:45.400Z,92.00
2019-03-02T13:43:37.993Z,91.20
2019-03-02T13:46:13.919Z,91.60
2019-03-02T13:49:10.111Z,93.70
2019-03-02T13:52:07.511Z,94.10
2019-03-02T13:54:48.645Z,94.00
2019-03-02T13:57:43.123Z,94.40
2019-03-02T14:00:40.693Z,92.50
2019-03-02T14:03:24.818Z,93.20
2019-03-02T14:06:14.117Z,92.80
2019-03-02T14:09:05.738Z,92.40
2019-03-02T14:11:52.153Z,94.30
2019-03-02T14:14:32.343Z,94.70
2019-03-02T14:17:19.763Z,94.50
2019-03-02T14:20:07.661Z,95.80
2019-03-02T14:23:10.342Z,95.70
2019-03-02T14:25:56.130Z,96.00
2019-03-02T14:28:34.784Z,96.80
2019-03-02T14:31:19.820Z,97.00
2019-03-02T14:34:11.980Z,98.50
2019-03-02T14:36:59.586Z,99.20
2019-03-02T14:39:38.077Z,99.90
2019-03-02T14:42:19.550Z,99.90
2019-03-02T14:45:12.675Z,99.90
2019-03-02T14:47:58.760Z,99.50
2019-03-02T14:50:52.367Z,99.90
2019-03-02T14:53:52.474Z,99.90
2019-03-02T14:56:40.344Z,99.90
2019-03-02T14:59:27.874Z,99.90
2019-03-02T15:02:20.106Z,99.90
2019-03-02T15:05:16.159Z,99.90
2019-03-02T15:08:05.855Z,99.90
2019-03-02T15:10:53.433Z,99.90
2019-03-02T15:13:49.787Z,99.90
2019-03-02T15:16:43.127Z,99.90
2019-03-02T15:19:19.316Z,99.90
2019-03-02T15:22:05.536Z,99.90
2019-03-02T15:24:56.017Z,99.90
2019-03-02T15:27:39.530Z,99.90
2019-03-02T15:30:44.164Z,99.90
2019-03-02T15:33:37.746Z,99.90
2019-03-02T15:36:24.652Z,99.90
2019-03-02T15:39:16.460Z,99.90
2019-03-02T15:42:11.954Z,99.90
2019-03-02T15:44:58.423Z,99.90
2019-03-02T15:47:36.146Z,99.90
2019-03-02T15:50:13.429Z,99.90
2019-03-02T15:53:16.109Z,99.90
2019-03-02T15:56:23.423Z,99.90
2019-03-02T15:59:20.591Z,99.90
2019-03-02T16:02:13.690Z,99.90
2019-03-02T16:05:11.127Z,99.90
2019-03-02T16:07:49.214Z,99.90
2019-03-02T16:10:40.170Z,99.90
2019-03-02T16:13:16.944Z,99.90
2019-03-02T16:16:03.356Z,99.90
2019-03-02T16:18:45.277Z,99.90
2019-03-02T16:21:27.743Z,99.90
2019-03-02T16:24:19.953Z,99.90
2019-03-02T16:27:07.223Z,99.90
2019-03-02T16:29:56.749Z,99.90
2019-03-02T16:32:55.376Z,99.90
2019-03-02T16:35:40.024Z,99.90
2019-03-02T16:38:21.977Z,99.90
2019-03-02T16:41:12.358Z,99.90
2019-03-02T16:44:03.144Z,99.90
2019-03-02T16:46:51.321Z,99.90
2019-03-02T16:49:41.773Z,99.90
2019-03-02T16:52:27.682Z,99.90
2019-03-02T16:55:12.725Z,99.90
2019-03-02T16:58:05.990Z,99.90
2019-03-02T17:00:58.073Z,99.90
2019-03-02T17:03:45.485Z,99.90
2019-03-02T17:06:25.662Z,99.90
2019-03-02T17:09:07.865Z,99.90
2019-03-02T17:12:15.900Z,99.90
2019-03-02T17:15:02.230Z,99.90
2019-03-02T17:17:45.186Z,99.90
2019-03-02T17:20:22.868Z,99.90
2019-03-02T17:23:21.174Z,99.90
2019-03-02T17:25:58.094Z,99.90
2019-03-02T17:28:45.371Z,99.90
2019-03-02T17:31:36.231Z,99.90
2019-03-02T17:34:20.874Z,99.90
2019-03-02T17:37:07.451Z,99.90
2019-03-02T17:39:51.722Z,99.90
2019-03-02T17:42:48.337Z,99.90
2019-03-02T17:45:27.086Z,99.90
2019-03-02T17:48:20.630Z,99.90
2019-03-02T17:51:01.692Z,99.90
2019-03-02T17:54:07.614Z,99.90
2019-03-02T17:57:09.862Z,99.90
2019-03-02T18:00:06.754Z,99.90
2019-03-02T18:02:54.560Z,99.90
2019-03-02T18:05:47.542Z,99.90
2019-03-02T18:08:23.753Z,99.90
2019-03-02T18:11:14.784Z,99.90
2019-03-02T18:14:05.410Z,99.90
2019-03-02T18:17:08.288Z,99.90
2019-03-02T18:19:39.625Z,99.90
2019-03-02T18:22:06.425Z,99.90
2019-03-02T18:24:36.569Z,99.90
2019-03-02T18:27:04.697Z,99.90
2019-03-02T18:29:32.650Z,99.90
2019-03-02T18:32:02.209Z,99.90
2019-03-02T18:34:30.454Z,99.90
2019-03-02T18:36:58.392Z,99.90
2019-03-02T18:39:26.646Z,99.90
2019-03-02T18:41:54.871Z,99.90
2019-03-02T18:44:22.881Z,99.90
2019-03-02T18:46:53.159Z,99.90
2019-03-02T18:49:47.519Z,99.90
2019-03-02T18:52:32.637Z,99.90
2019-03-02T18:55:01.668Z,99.90
2019-03-02T18:57:29.450Z,99.90
2019-03-02T18:59:57.486Z,99.90
2019-03-02T19:02:25.258Z,99.90
2019-03-02T19:04:54.725Z,99.90
2019-03-02T19:07:22.665Z,99.90
2019-03-02T19:09:50.683Z,99.90
2019-03-02T19:12:18.600Z,99.90
2019-03-02T19:14:46.751Z,99.90
2019-03-02T19:17:14.593Z,99.90
2019-03-02T19:19:42.408Z,99.90
2019-03-02T19:22:10.347Z,99.90
2019-03-02T19:24:38.183Z,99.90
2019-03-02T19:27:06.003Z,99.90
2019-03-02T19:29:33.984Z,99.90
2019-03-02T19:32:01.782Z,99.90
2019-03-02T19:34:29.575Z,99.90
2019-03-02T19:36:57.681Z,99.90
2019-03-02T19:39:26.005Z,99.90
2019-03-02T19:41:54.161Z,99.90
2019-03-02T19:44:23.953Z,99.90
2019-03-02T19:46:51.751Z,99.90
2019-03-02T19:49:19.872Z,99.90
2019-03-02T19:51:47.981Z,99.90
2019-03-02T19:54:18.755Z,99.90
2019-03-02T19:56:46.624Z,99.90
2019-03-02T19:59:14.669Z,99.90
2019-03-02T20:01:48.537Z,99.90
2019-03-02T20:04:18.197Z,99.90
2019-03-02T20:06:46.017Z,99.90
2019-03-02T20:09:14.048Z,99.90
2019-03-02T20:11:42.006Z,99.90
2019-03-02T20:14:10.020Z,99.80
2019-03-02T20:16:37.804Z,99.80
2019-03-02T20:19:05.706Z,99.90
2019-03-02T20:21:33.513Z,99.90
2019-03-02T20:24:01.430Z,99.90
2019-03-02T20:26:29.220Z,99.90
2019-03-02T20:28:57.192Z,99.90
2019-03-02T20:31:25.165Z,99.90
2019-03-02T20:33:52.965Z,99.90
2019-03-02T20:36:21.015Z,99.90
2019-03-02T20:38:48.861Z,99.90
2019-03-02T20:41:16.872Z,99.90
2019-03-02T20:43:44.677Z,99.90
2019-03-02T20:46:12.478Z,99.90
2019-03-02T20:48:40.386Z,99.90
2019-03-02T20:51:08.200Z,99.90
2019-03-02T20:53:35.995Z,99.90
2019-03-02T20:56:03.984Z,99.90
2019-03-02T20:58:31.960Z,99.90
2019-03-02T21:00:59.750Z,99.90
2019-03-02T21:03:27.537Z,99.90
2019-03-02T21:05:55.462Z,99.90
2019-03-02T21:08:23.475Z,99.90
2019-03-02T21:10:51.288Z,99.90
2019-03-02T21:13:19.287Z,99.90
2019-03-02T21:15:47.272Z,99.90
2019-03-02T21:18:15.123Z,99.90
2019-03-02T21:20:43.517Z,99.90
2019-03-02T21:23:11.328Z,99.90
2019-03-02T21:25:39.133Z,99.90
2019-03-02T21:28:07.145Z,99.90
2019-03-02T21:30:35.051Z,99.90
2019-03-02T21:33:02.980Z,99.90
2019-03-02T21:35:30.801Z,99.90
2019-03-02T21:37:58.916Z,99.90
2019-03-02T21:40:26.756Z,99.90
2019-03-02T21:42:54.530Z,99.90
2019-03-02T21:45:22.735Z,99.90
2019-03-02T21:47:51.888Z,99.90
2019-03-02T21:50:23.114Z,99.90
2019-03-02T21:52:51.055Z,99.90
2019-03-02T21:55:18.953Z,99.90
2019-03-02T21:57:46.740Z,99.90
2019-03-02T22:00:21.377Z,99.90
2019-03-02T22:02:51.085Z,99.90
2019-03-02T22:05:18.847Z,99.80
2019-03-02T22:07:46.878Z,99.90
2019-03-02T22:10:31.413Z,99.10
2019-03-02T22:12:59.433Z,99.90
2019-03-02T22:15:27.236Z,99.70
2019-03-02T22:17:55.846Z,99.40
2019-03-02T22:20:23.840Z,99.60
2019-03-02T22:22:51.636Z,99.40
2019-03-02T22:25:19.459Z,98.90
2019-03-02T22:27:47.391Z,98.80
2019-03-02T22:30:18.462Z,99.50
2019-03-02T22:32:46.269Z,99.20
2019-03-02T22:35:15.691Z,99.50
2019-03-02T22:37:43.644Z,99.50
2019-03-02T22:40:16.607Z,99.20
2019-03-02T22:42:44.556Z,98.70
2019-03-02T22:45:14.044Z,99.20
2019-03-02T22:47:41.837Z,99.10
2019-03-02T22:50:16.102Z,99.10
2019-03-02T22:52:43.871Z,99.10
2019-03-02T22:55:13.633Z,98.50
2019-03-02T22:57:41.446Z,98.10
2019-03-02T23:01:03.357Z,98.70
2019-03-02T23:03:29.720Z,99.20
2019-03-02T23:05:59.451Z,98.60
2019-03-02T23:08:27.379Z,98.30
2019-03-02T23:10:55.272Z,98.80
2019-03-02T23:13:23.059Z,99.00
2019-03-02T23:15:50.990Z,99.20
2019-03-02T23:18:18.778Z,98.10
2019-03-02T23:20:46.815Z,98.60
2019-03-02T23:23:14.806Z,98.40
2019-03-02T23:25:42.714Z,97.40
2019-03-02T23:28:10.654Z,96.40
2019-03-02T23:30:38.540Z,98.10
2019-03-02T23:33:06.599Z,97.40
2019-03-02T23:35:34.414Z,97.80
2019-03-02T23:38:02.183Z,97.70
2019-03-02T23:40:30.107Z,97.90
2019-03-02T23:42:57.899Z,97.30
2019-03-02T23:45:25.856Z,98.00
2019-03-02T23:47:53.830Z,97.70
2019-03-02T23:50:21.613Z,97.20
2019-03-02T23:52:49.595Z,97.20
2019-03-02T23:55:17.540Z,97.10
2019-03-02T23:57:45.331Z,96.10
